Parowan, Utah
Current Conditions -  °F | °C
As of 12:53 PM on Monday 26 Jan 2015 (Local Time) from KCDC Reporting Station
Clear Clear  
Wind Chill: 10°   Ceiling: Unl
Heat Index: 10°   Visibility: 10mi
Dew Point:   Wind: 3mph
Humidity: 50%   Direction: NA
Pressure: 30.26"   Gusts: NA
Location:  37.84°N, 112.83°W
Report Text: KCDC 261953Z AUTO VRB03KT 10SM CLR 10/00 A3026 RMK AO2 SLP236 T01000000
Loading
Personal Weather Stations






























Interactive Weather Map New forecast layout! Learn more

10-Day Weather Forecast

Advertisements
Track Severe Weather on mobile